Terminal Aerodrome Forecast
Issued by NWS Paducah, KY

Home | Current Version | Previous Version | Text Only | Print | Product List | Glossary On
Versions: 1 2 3 4 5 6 7 8 9 10 11 12 13 14 15 16 17 18 19 20 21 22 23 24 25 26 27 28 29
000
FTUS43 KPAH 281724
TAFEVV
TAF
KEVV 281724Z 2818/2918 20006KT P6SM VCTS SCT020 BKN045CB
      TEMPO 2821/2901 2SM TSRA BR OVC015CB
     FM290400 VRB02KT 5SM BR SCT050 SCT100
     FM290700 00000KT 3SM BR OVC012
      TEMPO 2910/2914 1SM BR OVC002
     FM291400 27004KT P6SM BKN015=

USA.gov is the U.S. government's official web portal to all federal, state and local government web resources and services.